Time;durP1;ratioP1;P1;durP2;ratioP2;P2;SDS_P1;SDS_P2;PMS_P1;PMS_P2;Temp;Humidity;BMP_temperature;BMP_pressure;BME280_temperature;BME280_humidity;BME280_pressure;Samples;Min_cycle;Max_cycle;Signal;HPM_P1;HPM_P2
2023/06/28 00:00:55;;;;;;;;;;;;;;;18.43;100.00;101842.16;5048433;28;20420;-77
2023/06/28 00:03:22;;;;;;;;;;;;;;;18.34;100.00;101833.41;5037895;28;20016;-78
2023/06/28 00:05:48;;;;;;;;;;;;;;;18.34;100.00;101830.75;5048023;28;19925;-78
2023/06/28 00:08:15;;;;;;;;;;;;;;;18.37;100.00;101835.72;5027021;28;19929;-79
2023/06/28 00:10:41;;;;;;;;;;;;;;;18.35;100.00;101832.41;5047080;28;19929;-78
2023/06/28 00:13:08;;;;;;;;;;;;;;;18.29;100.00;101834.94;5038748;28;19932;-78
2023/06/28 00:15:34;;;;;;;;;;;;;;;18.25;100.00;101831.81;5047330;28;19937;-77
2023/06/28 00:18:03;;;;;;;;;;;;;;;18.18;100.00;101825.50;5048504;28;20008;-75
2023/06/28 00:20:30;;;;;;;;;;;;;;;18.16;100.00;101825.69;5040883;28;20455;-76
2023/06/28 00:22:56;;;;;;;;;;;;;;;18.22;100.00;101832.13;5047691;28;19929;-78
2023/06/28 00:25:23;;;;;;;;;;;;;;;18.25;100.00;101837.09;5026466;28;19925;-79
2023/06/28 00:27:49;;;;;;;;;;;;;;;18.25;100.00;101837.09;5051783;28;19928;-78
2023/06/28 00:30:16;;;;;;;;;;;;;;;18.17;100.00;101831.84;5038643;28;20477;-76
2023/06/28 00:32:43;;;;;;;;;;;;;;;18.21;100.00;101845.56;5033182;28;20011;-73
2023/06/28 00:35:09;;;;;;;;;;;;;;;18.26;100.00;101844.06;5029779;28;19937;-77
2023/06/28 00:37:36;;;;;;;;;;;;;;;18.26;100.00;101843.25;5043262;28;20023;-76
2023/06/28 00:40:05;;;;;;;;;;;;;;;18.24;100.00;101838.09;5052168;28;19928;-76
2023/06/28 00:42:32;;;;;;;;;;;;;;;18.16;100.00;101833.63;5042315;28;19925;-77
2023/06/28 00:44:59;;;;;;;;;;;;;;;18.21;100.00;101840.25;5049904;28;20436;-79
2023/06/28 00:47:26;;;;;;;;;;;;;;;18.25;100.00;101834.47;5036756;28;19931;-73
2023/06/28 00:49:53;;;;;;;;;;;;;;;18.29;100.00;101834.94;5048986;28;19925;-77
2023/06/28 00:52:20;;;;;;;;;;;;;;;18.34;100.00;101830.75;5051812;28;19932;-76
2023/06/28 00:54:46;;;;;;;;;;;;;;;18.30;100.00;101831.28;5045186;28;20393;-76
2023/06/28 00:57:13;;;;;;;;;;;;;;;18.35;100.00;101839.56;5043432;28;19925;-78
2023/06/28 00:59:40;;;;;;;;;;;;;;;18.36;100.00;101841.19;5040361;28;19929;-74
2023/06/28 01:02:07;;;;;;;;;;;;;;;18.33;100.00;101833.59;5045929;28;20002;-77
2023/06/28 01:04:34;;;;;;;;;;;;;;;18.36;100.00;101838.53;5044969;28;19924;-77
2023/06/28 01:07:01;;;;;;;;;;;;;;;18.28;99.51;101827.97;5050815;28;19932;-77
2023/06/28 01:09:28;;;;;;;;;;;;;;;18.31;100.00;101833.75;5048929;28;19925;-77
2023/06/28 01:11:55;;;;;;;;;;;;;;;18.30;100.00;101834.75;5043174;28;19928;-75
2023/06/28 01:14:23;;;;;;;;;;;;;;;18.30;100.00;101834.75;5047512;28;20274;-77
2023/06/28 01:16:54;;;;;;;;;;;;;;;18.27;100.00;101828.94;5040630;28;19929;-78
2023/06/28 01:19:24;;;;;;;;;;;;;;;18.17;97.29;101835.31;5050996;28;19959;-75
2023/06/28 01:21:53;;;;;;;;;;;;;;;18.17;100.00;101830.00;5044062;28;20027;-76
2023/06/28 01:24:21;;;;;;;;;;;;;;;18.18;100.00;101828.97;5050795;28;19929;-76
2023/06/28 01:26:58;;;;;;;;;;;;;;;18.23;100.00;101832.94;5049526;28;19958;-75
2023/06/28 01:29:25;;;;;;;;;;;;;;;18.26;100.00;101833.44;5040878;28;19939;-77
2023/06/28 01:31:52;;;;;;;;;;;;;;;18.29;100.00;101834.94;5047134;28;20339;-77
2023/06/28 01:34:19;;;;;;;;;;;;;;;18.33;100.00;101831.75;5043498;28;20343;-78
2023/06/28 01:36:46;;;;;;;;;;;;;;;18.34;100.00;101836.06;5048386;28;19967;-77
2023/06/28 01:39:13;;;;;;;;;;;;;;;18.36;100.00;101839.38;5043626;28;19929;-75
2023/06/28 01:41:41;;;;;;;;;;;;;;;18.38;100.00;101840.03;5045806;28;20266;-74
2023/06/28 01:44:07;;;;;;;;;;;;;;;18.38;100.00;101840.03;5022548;28;19991;-78
2023/06/28 01:46:34;;;;;;;;;;;;;;;18.44;100.00;101843.81;5027770;28;19960;-75
2023/06/28 01:49:01;;;;;;;;;;;;;;;18.49;100.00;101846.78;5049286;28;20622;-78
2023/06/28 01:51:27;;;;;;;;;;;;;;;18.47;100.00;101847.97;5044963;28;19932;-77
2023/06/28 01:53:55;;;;;;;;;;;;;;;18.45;100.00;101850.78;5050231;28;19929;-73
2023/06/28 01:56:21;;;;;;;;;;;;;;;18.44;100.00;101848.31;5030222;28;19929;-75
2023/06/28 01:58:47;;;;;;;;;;;;;;;18.38;100.00;101850.66;5043491;28;19933;-78
2023/06/28 02:01:14;;;;;;;;;;;;;;;18.32;100.00;101848.69;5031955;28;19929;-74
2023/06/28 02:03:40;;;;;;;;;;;;;;;18.30;100.00;101841.91;5045779;28;19932;-75
2023/06/28 02:06:08;;;;;;;;;;;;;;;18.26;100.00;101837.94;5037809;28;19928;-78
2023/06/28 02:08:35;;;;;;;;;;;;;;;18.20;100.00;101835.97;5043114;28;19933;-77
2023/06/28 02:11:01;;;;;;;;;;;;;;;18.17;100.00;101835.31;5044182;28;20277;-78
2023/06/28 02:13:27;;;;;;;;;;;;;;;18.20;100.00;101828.81;5042801;28;19925;-76
2023/06/28 02:15:55;;;;;;;;;;;;;;;18.25;100.00;101831.81;5050271;28;19929;-76
2023/06/28 02:18:24;;;;;;;;;;;;;;;18.28;100.00;101835.94;5045324;28;19925;-76
2023/06/28 02:20:51;;;;;;;;;;;;;;;18.26;100.00;101835.28;5045000;28;19970;-76
2023/06/28 02:23:18;;;;;;;;;;;;;;;18.25;100.00;101826.50;5045934;28;19994;-78
2023/06/28 02:25:44;;;;;;;;;;;;;;;18.25;100.00;101830.94;5038989;28;20015;-78
2023/06/28 02:28:11;;;;;;;;;;;;;;;18.28;100.00;101827.97;5049839;28;19929;-78
2023/06/28 02:30:37;;;;;;;;;;;;;;;18.27;100.00;101820.97;5042504;28;20338;-78
2023/06/28 02:33:04;;;;;;;;;;;;;;;18.20;100.00;101820.03;5050656;28;19964;-76
2023/06/28 02:35:31;;;;;;;;;;;;;;;18.17;100.00;101818.56;5049853;28;19964;-77
2023/06/28 02:37:57;;;;;;;;;;;;;;;18.11;100.00;101816.56;5039302;28;19935;-76
2023/06/28 02:40:27;;;;;;;;;;;;;;;18.11;100.00;101814.75;5040022;28;19925;-80
2023/06/28 02:42:53;;;;;;;;;;;;;;;18.12;100.00;101808.44;5025890;28;19951;-79
2023/06/28 02:45:20;;;;;;;;;;;;;;;18.10;100.00;101815.75;5050907;28;19956;-79
2023/06/28 02:47:46;;;;;;;;;;;;;;;18.09;100.00;101813.25;5043980;28;19952;-76
2023/06/28 02:50:13;;;;;;;;;;;;;;;18.11;100.00;101813.91;5051073;28;19933;-78
2023/06/28 02:52:39;;;;;;;;;;;;;;;18.08;100.00;101811.63;5036920;28;20369;-77
2023/06/28 02:55:07;;;;;;;;;;;;;;;18.06;100.00;101811.78;5023574;28;19928;-78
2023/06/28 02:57:37;;;;;;;;;;;;;;;18.01;100.00;101811.47;5050080;28;20680;-78
2023/06/28 03:00:05;;;;;;;;;;;;;;;17.96;100.00;101811.16;5042774;28;20519;-78
2023/06/28 03:02:31;;;;;;;;;;;;;;;17.91;100.00;101810.84;5046065;28;19925;-77
2023/06/28 03:04:58;;;;;;;;;;;;;;;17.87;100.00;101810.34;5039762;28;19924;-76
2023/06/28 03:07:25;;;;;;;;;;;;;;;17.81;100.00;101807.53;5043398;28;19933;-74
2023/06/28 03:09:51;;;;;;;;;;;;;;;17.81;100.00;101802.22;5044860;28;19928;-77
2023/06/28 03:12:17;;;;;;;;;;;;;;;17.82;100.00;101806.50;5042677;28;19934;-76
2023/06/28 03:14:44;;;;;;;;;;;;;;;17.84;100.00;101804.53;5047765;28;19928;-78
2023/06/28 03:17:10;;;;;;;;;;;;;;;17.87;100.00;101807.69;5043918;28;19928;-76
2023/06/28 03:19:37;;;;;;;;;;;;;;;17.89;100.00;101805.69;5041771;28;20542;-78
2023/06/28 03:22:04;;;;;;;;;;;;;;;17.91;100.00;101801.03;5047051;28;20392;-77
2023/06/28 03:24:30;;;;;;;;;;;;;;;17.89;100.00;101804.88;5041660;28;19928;-78
2023/06/28 03:26:56;;;;;;;;;;;;;;;17.89;100.00;101803.03;5030061;28;19983;-76
2023/06/28 03:29:23;;;;;;;;;;;;;;;17.79;100.00;101791.75;5019962;28;19983;-77
2023/06/28 03:31:49;;;;;;;;;;;;;;;17.84;100.00;101799.22;5027382;28;19947;-74
2023/06/28 03:34:16;;;;;;;;;;;;;;;17.74;100.00;101797.59;5036943;28;20216;-76
2023/06/28 03:36:43;;;;;;;;;;;;;;;17.77;100.00;101788.44;5027040;28;19946;-76
2023/06/28 03:39:28;;;;;;;;;;;;;;;17.69;100.00;101799.09;5041224;28;19932;-76
2023/06/28 03:41:54;;;;;;;;;;;;;;;17.74;100.00;101797.59;5030075;28;19971;-75
2023/06/28 03:44:21;;;;;;;;;;;;;;;17.76;100.00;101795.59;5059915;28;19960;-74
2023/06/28 03:46:47;;;;;;;;;;;;;;;17.81;100.00;101791.59;5043352;28;19929;-77
2023/06/28 03:49:14;;;;;;;;;;;;;;;17.79;100.00;101794.41;5043983;28;19979;-75
2023/06/28 03:51:40;;;;;;;;;;;;;;;17.72;100.00;101793.44;5030921;28;20585;-77
2023/06/28 03:54:07;;;;;;;;;;;;;;;17.66;100.00;101789.66;5025104;28;19984;-77
2023/06/28 03:56:33;;;;;;;;;;;;;;;17.64;100.00;101789.00;5037508;28;19970;-76
2023/06/28 03:58:59;;;;;;;;;;;;;;;17.60;100.00;101790.31;5035107;28;20341;-76
2023/06/28 04:01:26;;;;;;;;;;;;;;;17.61;100.00;101785.84;5046462;28;19928;-75
2023/06/28 04:03:52;;;;;;;;;;;;;;;17.63;100.00;101786.50;5021179;28;20340;-77
2023/06/28 04:06:19;;;;;;;;;;;;;;;17.54;100.00;101791.84;5050528;28;19995;-75
2023/06/28 04:08:46;;;;;;;;;;;;;;;17.50;100.00;101789.66;5045534;28;19929;-75
2023/06/28 04:11:13;;;;;;;;;;;;;;;17.48;100.00;101789.00;5051644;28;19928;-75
2023/06/28 04:13:39;;;;;;;;;;;;;;;17.43;100.00;101796.66;5050246;28;20318;-76
2023/06/28 04:16:05;;;;;;;;;;;;;;;17.39;100.00;101796.16;5040483;28;19982;-76
2023/06/28 04:18:32;;;;;;;;;;;;;;;17.41;100.00;101794.16;5051602;28;19954;-75
2023/06/28 04:20:58;;;;;;;;;;;;;;;17.40;100.00;101787.19;5045727;28;19925;-75
2023/06/28 04:23:25;;;;;;;;;;;;;;;17.33;100.00;101788.88;5051916;28;19999;-75
2023/06/28 04:25:53;;;;;;;;;;;;;;;17.41;100.00;101791.53;5041150;28;20023;-73
2023/06/28 04:28:19;;;;;;;;;;;;;;;17.32;100.00;101795.16;5043320;28;19937;-75
2023/06/28 04:30:46;;;;;;;;;;;;;;;17.23;100.00;101793.50;5048799;28;19964;-73
2023/06/28 04:33:18;;;;;;;;;;;;;;;17.23;100.00;101790.84;5047870;28;19929;-74
2023/06/28 04:35:47;;;;;;;;;;;;;;;17.28;100.00;101793.84;5050750;28;19933;-74
2023/06/28 04:38:14;;;;;;;;;;;;;;;17.29;100.00;101791.03;5041296;28;20467;-74
2023/06/28 04:40:41;;;;;;;;;;;;;;;17.36;100.00;101788.53;5046293;28;19929;-75
2023/06/28 04:43:10;;;;;;;;;;;;;;;17.38;100.00;101789.19;5052957;28;19935;-75
2023/06/28 04:45:37;;;;;;;;;;;;;;;17.30;100.00;101797.16;5050851;28;19929;-75
2023/06/28 04:48:07;;;;;;;;;;;;;;;17.22;100.00;101791.88;5051427;28;19964;-76
2023/06/28 04:50:34;;;;;;;;;;;;;;;17.21;100.00;101801.66;5045286;28;20048;-76
2023/06/28 04:53:03;;;;;;;;;;;;;;;17.16;100.00;101788.88;5047086;28;19932;-76
2023/06/28 04:55:32;;;;;;;;;;;;;;;17.16;100.00;101794.19;5041081;28;20364;-76
2023/06/28 04:58:00;;;;;;;;;;;;;;;16.97;100.00;101792.72;5058463;28;19925;-76
2023/06/28 05:00:26;;;;;;;;;;;;;;;17.00;100.00;101794.19;5046562;28;19929;-75
2023/06/28 05:02:56;;;;;;;;;;;;;;;17.01;100.00;101801.13;5053087;28;19924;-76
2023/06/28 05:05:26;;;;;;;;;;;;;;;16.94;100.00;101790.38;5051177;28;19924;-73
2023/06/28 05:07:53;;;;;;;;;;;;;;;16.99;100.00;101790.72;5045212;28;20065;-75
2023/06/28 05:10:21;;;;;;;;;;;;;;;16.93;100.00;101788.69;5046821;28;19975;-75
2023/06/28 05:12:51;;;;;;;;;;;;;;;17.00;100.00;101791.53;5044204;28;19932;-75
2023/06/28 05:15:18;;;;;;;;;;;;;;;17.12;100.00;101786.72;5025584;28;19952;-76
2023/06/28 05:17:45;;;;;;;;;;;;;;;17.10;100.00;101789.53;5023493;28;20312;-76
2023/06/28 05:20:11;;;;;;;;;;;;;;;17.04;100.00;101790.22;5051262;28;19955;-75
2023/06/28 05:22:43;;;;;;;;;;;;;;;17.05;100.00;101789.19;5036946;28;20450;-75
2023/06/28 05:25:09;;;;;;;;;;;;;;;17.02;100.00;101789.56;5048602;28;19925;-76
2023/06/28 05:27:35;;;;;;;;;;;;;;;17.06;100.00;101788.22;5049209;28;19925;-76
2023/06/28 05:30:02;;;;;;;;;;;;;;;16.96;100.00;101792.88;5044552;28;19929;-76
2023/06/28 05:32:29;;;;;;;;;;;;;;;16.97;100.00;101790.06;5051655;28;19951;-76
2023/06/28 05:34:55;;;;;;;;;;;;;;;16.89;100.00;101789.19;5044418;28;20442;-75
2023/06/28 05:37:22;;;;;;;;;;;;;;;16.82;100.00;101788.19;5051190;28;19933;-76
2023/06/28 05:39:48;;;;;;;;;;;;;;;16.86;100.00;101784.25;5044689;28;19924;-77
2023/06/28 05:42:14;;;;;;;;;;;;;;;16.75;100.00;101790.66;5050535;28;19982;-74
2023/06/28 05:44:41;;;;;;;;;;;;;;;16.79;100.00;101773.44;5045202;28;19982;-76
2023/06/28 05:47:07;;;;;;;;;;;;;;;16.94;100.00;101778.94;5038848;28;20216;-76
2023/06/28 05:49:37;;;;;;;;;;;;;;;16.89;100.00;101779.41;5031097;28;20373;-77
2023/06/28 05:52:05;;;;;;;;;;;;;;;16.88;100.00;101779.63;5043079;28;20386;-76
2023/06/28 05:54:32;;;;;;;;;;;;;;;16.89;100.00;101776.78;5052618;28;19933;-74
2023/06/28 05:56:58;;;;;;;;;;;;;;;16.98;100.00;101783.75;5047688;28;20000;-76
2023/06/28 05:59:25;;;;;;;;;;;;;;;16.85;100.00;101778.09;5029785;28;20011;-74
2023/06/28 06:01:51;;;;;;;;;;;;;;;16.81;100.00;101782.03;5047326;28;19924;-76
2023/06/28 06:04:20;;;;;;;;;;;;;;;16.77;100.00;101781.53;5054960;28;19943;-75
2023/06/28 06:06:47;;;;;;;;;;;;;;;16.76;100.00;101787.84;5065241;28;19928;-74
2023/06/28 06:09:13;;;;;;;;;;;;;;;16.75;100.00;101785.34;5047961;28;19931;-77
2023/06/28 06:11:40;;;;;;;;;;;;;;;16.74;100.00;101783.69;5051278;28;20164;-76
2023/06/28 06:14:06;;;;;;;;;;;;;;;16.78;100.00;101782.38;5041770;28;20311;-77
2023/06/28 06:16:33;;;;;;;;;;;;;;;16.71;100.00;101786.66;5028794;28;20339;-77
2023/06/28 06:18:59;;;;;;;;;;;;;;;16.75;100.00;101790.66;5049115;28;19925;-77
2023/06/28 06:21:26;;;;;;;;;;;;;;;16.71;100.00;101784.03;5041808;28;19936;-76
2023/06/28 06:23:52;;;;;;;;;;;;;;;16.67;100.00;101780.88;5050221;28;20407;-76
2023/06/28 06:26:19;;;;;;;;;;;;;;;16.62;100.00;101783.16;5042755;28;19952;-77
2023/06/28 06:28:45;;;;;;;;;;;;;;;16.61;100.00;101771.75;5043810;28;19984;-77
2023/06/28 06:31:14;;;;;;;;;;;;;;;16.63;100.00;101776.88;5040481;28;20023;-76
2023/06/28 06:33:41;;;;;;;;;;;;;;;16.51;100.00;101772.91;5045610;28;19929;-77
2023/06/28 06:36:08;;;;;;;;;;;;;;;16.46;100.00;101770.72;5049548;28;20344;-76
2023/06/28 06:38:37;;;;;;;;;;;;;;;16.43;100.00;101773.72;5042914;28;20035;-77
2023/06/28 06:41:03;;;;;;;;;;;;;;;16.35;100.00;101776.34;5046931;28;19971;-77
2023/06/28 06:43:30;;;;;;;;;;;;;;;16.42;100.00;101779.97;5037891;28;19929;-75
2023/06/28 06:45:56;;;;;;;;;;;;;;;16.34;100.00;101780.78;5048967;28;19931;-77
2023/06/28 06:48:23;;;;;;;;;;;;;;;16.38;100.00;101784.75;5025311;28;19987;-75
2023/06/28 06:50:49;;;;;;;;;;;;;;;16.33;100.00;101781.78;5045487;28;19925;-76
2023/06/28 06:53:16;;;;;;;;;;;;;;;16.29;100.00;101785.75;5043656;28;19933;-77
2023/06/28 06:55:42;;;;;;;;;;;;;;;16.33;100.00;101783.63;5037354;28;20043;-76
2023/06/28 06:58:09;;;;;;;;;;;;;;;16.41;100.00;101786.28;5026328;28;19972;-76
2023/06/28 07:00:35;;;;;;;;;;;;;;;16.44;100.00;101790.41;5042614;28;19928;-77
2023/06/28 07:03:02;;;;;;;;;;;;;;;16.50;100.00;101789.75;5048365;28;19955;-77
2023/06/28 07:05:28;;;;;;;;;;;;;;;16.36;100.00;101792.03;5040833;28;19936;-76
2023/06/28 07:07:55;;;;;;;;;;;;;;;16.37;100.00;101795.53;5048574;28;20015;-75
2023/06/28 07:10:21;;;;;;;;;;;;;;;16.41;100.00;101794.22;5042992;28;19979;-78
2023/06/28 07:12:48;;;;;;;;;;;;;;;16.54;100.00;101789.31;5036040;28;21071;-76
2023/06/28 07:15:14;;;;;;;;;;;;;;;16.49;100.00;101796.88;5046010;28;19931;-78
2023/06/28 07:17:40;;;;;;;;;;;;;;;16.48;100.00;101786.44;5043731;28;19951;-76
2023/06/28 07:20:07;;;;;;;;;;;;;;;16.33;100.00;101796.84;5046963;28;19940;-76
2023/06/28 07:22:34;;;;;;;;;;;;;;;16.36;100.00;101788.56;5042103;28;20346;-74
2023/06/28 07:25:04;;;;;;;;;;;;;;;16.35;100.00;101789.56;5041776;28;19932;-75
2023/06/28 07:27:31;;;;;;;;;;;;;;;16.37;100.00;101801.66;5046862;28;20015;-74
2023/06/28 07:29:57;;;;;;;;;;;;;;;16.45;100.00;101802.69;5044375;28;20462;-73
2023/06/28 07:32:26;;;;;;;;;;;;;;;16.47;100.00;101798.06;5031811;28;19975;-76
2023/06/28 07:34:54;;;;;;;;;;;;;;;16.57;100.00;101793.44;5039334;28;19972;-76
2023/06/28 07:37:21;;;;;;;;;;;;;;;16.63;100.00;101792.78;5045505;28;20392;-77
2023/06/28 07:39:47;;;;;;;;;;;;;;;16.59;100.00;101791.44;5038420;28;19975;-77
2023/06/28 07:42:14;;;;;;;;;;;;;;;16.67;100.00;101788.81;5047549;28;20576;-77
2023/06/28 07:44:41;;;;;;;;;;;;;;;16.74;100.00;101787.19;5045281;28;19975;-77
2023/06/28 07:47:07;;;;;;;;;;;;;;;16.78;100.00;101785.03;5046710;28;19924;-76
2023/06/28 07:49:34;;;;;;;;;;;;;;;16.80;100.00;101783.88;5047149;28;19933;-76
2023/06/28 07:52:00;;;;;;;;;;;;;;;16.81;100.00;101790.00;5037696;28;19924;-76
2023/06/28 07:54:27;;;;;;;;;;;;;;;16.80;100.00;101783.88;5044896;28;20332;-74
2023/06/28 07:57:00;;;;;;;;;;;;;;;16.88;100.00;101793.69;5038979;28;20627;-76
2023/06/28 07:59:27;;;;;;;;;;;;;;;16.84;100.00;101795.00;5044194;28;19924;-74
2023/06/28 08:01:54;;;;;;;;;;;;;;;16.95;100.00;101792.00;5044023;28;19929;-77
2023/06/28 08:04:20;;;;;;;;;;;;;;;16.98;100.00;101794.34;5023351;28;19929;-77
2023/06/28 08:06:46;;;;;;;;;;;;;;;17.06;100.00;101795.34;5039045;28;19975;-74
2023/06/28 08:09:13;;;;;;;;;;;;;;;17.10;100.00;101792.19;5022982;28;19936;-77
2023/06/28 08:11:40;;;;;;;;;;;;;;;17.13;100.00;101796.31;5048045;28;19955;-77
2023/06/28 08:14:07;;;;;;;;;;;;;;;17.14;100.00;101798.81;5041550;28;20404;-77
2023/06/28 08:16:34;;;;;;;;;;;;;;;17.22;100.00;101797.16;5047454;28;20024;-77
2023/06/28 08:19:02;;;;;;;;;;;;;;;17.22;100.00;101791.88;5043730;28;19979;-76
2023/06/28 08:21:28;;;;;;;;;;;;;;;17.31;100.00;101793.53;5037921;28;19935;-76
2023/06/28 08:23:55;;;;;;;;;;;;;;;17.32;100.00;101797.81;5048274;28;19982;-74
2023/06/28 08:26:22;;;;;;;;;;;;;;;17.43;100.00;101800.13;5041373;28;19929;-77
2023/06/28 08:28:49;;;;;;;;;;;;;;;17.44;100.00;101796.47;5046948;28;19979;-77
2023/06/28 08:31:26;;;;;;;;;;;;;;;17.53;100.00;101794.66;5023510;28;19964;-78
2023/06/28 08:33:52;;;;;;;;;;;;;;;17.58;100.00;101798.47;5024681;28;20139;-77
2023/06/28 08:36:19;;;;;;;;;;;;;;;17.57;100.00;101802.09;5040348;28;20432;-75
2023/06/28 08:38:45;;;;;;;;;;;;;;;17.61;100.00;101799.13;5037857;28;19929;-77
2023/06/28 08:41:13;;;;;;;;;;;;;;;17.69;100.00;101796.44;5041242;28;19931;-77
2023/06/28 08:43:42;;;;;;;;;;;;;;;17.73;100.00;101803.88;5045848;28;19971;-77
2023/06/28 08:46:09;;;;;;;;;;;;;;;17.68;100.00;101800.06;5043252;28;19963;-77
2023/06/28 08:48:36;;;;;;;;;;;;;;;17.73;100.00;101789.78;5030214;28;20189;-77
2023/06/28 08:51:03;;;;;;;;;;;;;;;17.78;100.00;101798.09;5049629;28;19929;-77
2023/06/28 08:53:30;;;;;;;;;;;;;;;17.83;100.00;101794.91;5051095;28;19929;-77
2023/06/28 08:55:58;;;;;;;;;;;;;;;17.77;100.00;101791.94;5046682;28;20052;-78
2023/06/28 08:58:25;;;;;;;;;;;;;;;17.74;100.00;101794.13;5050766;28;19967;-77
2023/06/28 09:00:52;;;;;;;;;;;;;;;17.68;100.00;101787.66;5039503;28;19925;-77
2023/06/28 09:03:18;;;;;;;;;;;;;;;17.81;100.00;101792.41;5047806;28;20408;-78
2023/06/28 09:05:45;;;;;;;;;;;;;;;17.86;100.00;101791.97;5044737;28;19929;-77
2023/06/28 09:08:12;;;;;;;;;;;;;;;17.87;100.00;101790.94;5048600;28;19951;-77
2023/06/28 09:10:39;;;;;;;;;;;;;;;17.91;100.00;101789.59;5049224;28;19924;-77
2023/06/28 09:13:05;;;;;;;;;;;;;;;17.96;100.00;101793.41;5043559;28;20285;-77
2023/06/28 09:15:33;;;;;;;;;;;;;;;18.06;100.00;101795.84;5027280;28;19925;-78
2023/06/28 09:18:00;;;;;;;;;;;;;;;18.12;100.00;101799.66;5036076;28;19932;-76
2023/06/28 09:20:26;;;;;;;;;;;;;;;18.10;100.00;101797.16;5031849;28;19982;-77
2023/06/28 09:22:54;;;;;;;;;;;;;;;18.05;100.00;101794.19;5048526;28;19951;-74
2023/06/28 09:25:21;;;;;;;;;;;;;;;18.02;100.00;101791.88;5047717;28;19928;-77
2023/06/28 09:27:47;;;;;;;;;;;;;;;18.04;100.00;101797.03;5032170;28;19929;-76
2023/06/28 09:30:18;;;;;;;;;;;;;;;18.01;100.00;101790.22;5032409;28;19976;-77
2023/06/28 09:32:50;;;;;;;;;;;;;;;18.09;100.00;101795.53;5036832;28;19932;-76
2023/06/28 09:35:17;;;;;;;;;;;;;;;18.10;100.00;101791.03;5043388;28;19928;-74
2023/06/28 09:37:58;;;;;;;;;;;;;;;18.15;100.00;101791.31;5030028;28;19935;-79
2023/06/28 09:40:26;;;;;;;;;;;;;;;18.26;100.00;101795.44;5043007;28;19929;-77
2023/06/28 09:42:54;;;;;;;;;;;;;;;18.26;100.00;101787.47;5032561;28;19931;-77
2023/06/28 09:45:28;;;;;;;;;;;;;;;18.34;100.00;101787.44;5046895;28;19937;-76
2023/06/28 09:47:58;;;;;;;;;;;;;;;18.31;100.00;101785.13;5031832;28;20417;-75
2023/06/28 09:50:37;;;;;;;;;;;;;;;18.35;100.00;101786.44;5049608;28;19928;-75
2023/06/28 09:53:08;;;;;;;;;;;;;;;18.35;100.00;101789.91;5032843;28;20053;-75
2023/06/28 09:55:41;;;;;;;;;;;;;;;18.40;100.00;101786.72;5048604;28;19983;-77
2023/06/28 09:58:09;;;;;;;;;;;;;;;18.47;100.00;101790.34;5038468;28;20348;-78
2023/06/28 10:00:39;;;;;;;;;;;;;;;18.55;100.00;101792.13;5049352;28;19971;-77
2023/06/28 10:03:07;;;;;;;;;;;;;;;18.58;100.00;101794.41;5049087;28;19932;-77
2023/06/28 10:05:35;;;;;;;;;;;;;;;18.54;100.00;101793.97;5043635;28;19948;-78
2023/06/28 10:08:08;;;;;;;;;;;;;;;18.65;100.00;101799.88;5046813;28;20392;-75
2023/06/28 10:10:36;;;;;;;;;;;;;;;18.51;100.00;101799.63;5040566;28;19928;-78
2023/06/28 10:13:06;;;;;;;;;;;;;;;18.54;100.00;101793.13;5044511;28;19929;-77
2023/06/28 10:15:51;;;;;;;;;;;;;;;18.65;100.00;101790.06;5021729;28;20389;-76
2023/06/28 10:18:21;;;;;;;;;;;;;;;18.67;100.00;101793.38;5050198;28;20312;-79
2023/06/28 10:20:49;;;;;;;;;;;;;;;18.69;100.00;101794.03;5046893;28;19924;-77
2023/06/28 10:23:16;;;;;;;;;;;;;;;18.73;100.00;101789.19;5051853;28;19979;-77
2023/06/28 10:25:49;;;;;;;;;;;;;;;18.87;100.00;101787.63;5028866;28;19968;-79
2023/06/28 10:28:15;;;;;;;;;;;;;;;18.82;100.00;101789.97;5032296;28;19929;-77
2023/06/28 10:30:42;;;;;;;;;;;;;;;18.85;100.00;101781.66;5049073;28;19929;-76
2023/06/28 10:33:09;;;;;;;;;;;;;;;19.05;100.00;101777.53;5043227;28;19928;-77
2023/06/28 10:35:36;;;;;;;;;;;;;;;19.17;100.00;101781.41;5027286;28;19928;-75
2023/06/28 10:38:03;;;;;;;;;;;;;;;19.26;100.00;101779.47;5043598;28;19955;-76
2023/06/28 10:40:30;;;;;;;;;;;;;;;19.31;100.00;101774.44;5053051;28;20106;-77
2023/06/28 10:42:56;;;;;;;;;;;;;;;19.39;100.00;101767.41;5034132;28;20020;-76
2023/06/28 10:45:36;;;;;;;;;;;;;;;19.29;100.00;101765.81;5046437;28;19925;-76
2023/06/28 10:48:03;;;;;;;;;;;;;;;19.55;100.00;101765.38;5051249;28;20511;-76
2023/06/28 10:50:38;;;;;;;;;;;;;;;19.54;100.00;101765.56;5043121;28;19928;-72
2023/06/28 10:53:05;;;;;;;;;;;;;;;19.67;100.00;101765.75;5048495;28;19913;-72
2023/06/28 10:55:33;;;;;;;;;;;;;;;19.83;100.00;101763.94;5050782;28;19916;-74
2023/06/28 10:58:06;;;;;;;;;;;;;;;19.95;100.00;101765.97;5069011;28;19984;-72
2023/06/28 11:00:45;;;;;;;;;;;;;;;20.03;100.00;101769.53;5052881;28;19932;-71
2023/06/28 11:03:13;;;;;;;;;;;;;;;20.13;100.00;101764.72;5048194;28;19960;-73
2023/06/28 11:05:55;;;;;;;;;;;;;;;20.50;100.00;101753.06;5046513;28;20401;-75
2023/06/28 11:08:34;;;;;;;;;;;;;;;20.77;99.63;101756.00;5044561;28;19931;-74
2023/06/28 11:11:01;;;;;;;;;;;;;;;20.89;96.57;101748.31;5052069;28;19932;-73
2023/06/28 11:13:32;;;;;;;;;;;;;;;20.98;94.68;101749.84;5045914;28;19925;-75
2023/06/28 11:16:09;;;;;;;;;;;;;;;21.02;92.98;101744.94;5052025;28;19971;-75
2023/06/28 11:18:37;;;;;;;;;;;;;;;21.01;91.50;101745.94;5037097;28;19976;-77
2023/06/28 11:21:12;;;;;;;;;;;;;;;20.96;88.27;101745.72;5046090;28;20241;-75
2023/06/28 11:23:40;;;;;;;;;;;;;;;21.10;92.39;101745.63;5042988;28;19929;-77
2023/06/28 11:26:07;;;;;;;;;;;;;;;21.24;92.43;101735.88;5047182;28;19925;-77
2023/06/28 11:28:34;;;;;;;;;;;;;;;21.38;88.47;101741.28;5042068;28;20389;-77
2023/06/28 11:31:20;;;;;;;;;;;;;;;21.47;88.22;101737.50;5021130;28;19986;-75
2023/06/28 11:33:50;;;;;;;;;;;;;;;21.47;88.41;101743.63;5040731;28;19924;-76
2023/06/28 11:36:17;;;;;;;;;;;;;;;21.59;91.35;101737.75;5024865;28;20563;-77
2023/06/28 11:38:44;;;;;;;;;;;;;;;21.77;89.92;101740.72;5049357;28;19929;-76
2023/06/28 11:41:13;;;;;;;;;;;;;;;21.95;87.38;101747.38;5043553;28;19975;-76
2023/06/28 11:43:39;;;;;;;;;;;;;;;22.16;87.92;101743.75;5050125;28;19925;-77
2023/06/28 11:46:06;;;;;;;;;;;;;;;22.29;87.47;101741.97;5036476;28;19995;-77
2023/06/28 11:48:33;;;;;;;;;;;;;;;22.39;85.58;101738.91;5039235;28;19963;-77
2023/06/28 11:51:00;;;;;;;;;;;;;;;22.61;84.90;101739.53;5029645;28;19925;-76
2023/06/28 11:53:27;;;;;;;;;;;;;;;22.47;81.22;101744.06;5043157;28;19928;-77
2023/06/28 11:55:54;;;;;;;;;;;;;;;22.52;81.89;101743.44;5050263;28;19964;-77
2023/06/28 11:58:31;;;;;;;;;;;;;;;22.54;80.60;101748.59;5038685;28;20086;-76
2023/06/28 12:01:01;;;;;;;;;;;;;;;22.37;82.21;101750.84;5044748;28;20374;-74
2023/06/28 12:03:28;;;;;;;;;;;;;;;22.31;82.66;101753.28;5060061;28;19925;-77
2023/06/28 12:05:55;;;;;;;;;;;;;;;22.44;84.20;101749.81;5041358;28;20004;-77
2023/06/28 12:08:22;;;;;;;;;;;;;;;22.39;81.26;101757.63;5049086;28;19983;-78
2023/06/28 12:10:48;;;;;;;;;;;;;;;22.17;80.61;101759.59;5041803;28;20326;-76
2023/06/28 12:13:22;;;;;;;;;;;;;;;22.22;82.18;101761.66;5044856;28;19925;-78
2023/06/28 12:15:48;;;;;;;;;;;;;;;22.18;81.25;101755.88;5022952;28;20316;-77
2023/06/28 12:18:15;;;;;;;;;;;;;;;22.28;84.48;101752.84;5052162;28;20365;-78
2023/06/28 12:20:41;;;;;;;;;;;;;;;22.34;83.51;101751.22;5051107;28;19933;-76
2023/06/28 12:23:14;;;;;;;;;;;;;;;22.22;84.25;101759.78;5024720;28;19936;-78
2023/06/28 12:25:42;;;;;;;;;;;;;;;22.15;83.52;101753.63;5051233;28;19975;-77
2023/06/28 12:28:12;;;;;;;;;;;;;;;22.17;82.60;101754.25;5039737;28;19948;-77
2023/06/28 12:30:39;;;;;;;;;;;;;;;22.13;85.77;101750.31;5048129;28;19925;-73